createdAt,value
2019-04-06T00:00:14.040Z,34.51
2019-04-06T00:02:41.732Z,34.45
2019-04-06T00:05:09.249Z,34.50
2019-04-06T00:07:36.907Z,34.75
2019-04-06T00:10:04.568Z,34.94
2019-04-06T00:12:32.225Z,34.98
2019-04-06T00:14:59.791Z,34.99
2019-04-06T00:17:27.188Z,35.02
2019-04-06T00:19:54.501Z,35.00
2019-04-06T00:22:22.187Z,35.03
2019-04-06T00:24:49.838Z,35.00
2019-04-06T00:27:17.099Z,35.10
2019-04-06T00:29:44.213Z,35.23
2019-04-06T00:32:37.122Z,35.21
2019-04-06T00:35:04.479Z,34.99
2019-04-06T00:37:31.726Z,34.63
2019-04-06T00:39:59.036Z,34.70
2019-04-06T00:42:26.692Z,34.66
2019-04-06T00:44:54.058Z,34.76
2019-04-06T00:47:21.203Z,34.92
2019-04-06T00:49:48.605Z,35.02
2019-04-06T00:52:15.729Z,35.20
2019-04-06T00:54:43.250Z,35.14
2019-04-06T00:57:10.375Z,35.14
2019-04-06T00:59:37.563Z,35.16
2019-04-06T01:02:05.531Z,35.11
2019-04-06T01:04:32.793Z,35.15
2019-04-06T01:07:00.242Z,35.16
2019-04-06T01:09:27.643Z,35.16
2019-04-06T01:11:55.187Z,35.04
2019-04-06T01:14:22.233Z,34.94
2019-04-06T01:16:49.560Z,34.81
2019-04-06T01:19:17.537Z,34.71
2019-04-06T01:21:45.315Z,34.87
2019-04-06T01:24:12.680Z,34.67
2019-04-06T01:26:40.286Z,34.76
2019-04-06T01:29:07.947Z,34.38
2019-04-06T01:32:25.234Z,34.71
2019-04-06T01:35:10.854Z,34.99
2019-04-06T01:37:37.896Z,35.13
2019-04-06T01:40:05.214Z,35.02
2019-04-06T01:42:32.258Z,35.01
2019-04-06T01:44:59.452Z,35.07
2019-04-06T01:47:26.501Z,34.61
2019-04-06T01:49:53.546Z,34.74
2019-04-06T01:52:20.601Z,34.69
2019-04-06T01:54:48.144Z,34.51
2019-04-06T01:57:15.481Z,34.90
2019-04-06T01:59:42.902Z,35.02
2019-04-06T02:02:15.838Z,35.11
2019-04-06T02:04:43.430Z,35.07
2019-04-06T02:07:10.629Z,35.09
2019-04-06T02:09:38.720Z,35.15
2019-04-06T02:12:06.383Z,35.03
2019-04-06T02:14:34.189Z,35.14
2019-04-06T02:17:01.239Z,35.24
2019-04-06T02:19:28.277Z,35.31
2019-04-06T02:21:55.322Z,35.03
2019-04-06T02:24:22.637Z,34.86
2019-04-06T02:26:49.668Z,34.78
2019-04-06T02:29:17.373Z,34.65
2019-04-06T02:32:08.149Z,34.66
2019-04-06T02:34:58.028Z,34.47
2019-04-06T02:37:44.343Z,34.90
2019-04-06T02:40:18.396Z,34.99
2019-04-06T02:42:52.911Z,35.07
2019-04-06T02:45:20.349Z,35.17
2019-04-06T02:47:47.489Z,34.85
2019-04-06T02:50:15.330Z,34.82
2019-04-06T02:52:42.839Z,34.54
2019-04-06T02:55:11.795Z,34.41
2019-04-06T02:57:38.890Z,34.48
2019-04-06T03:00:07.016Z,34.26
2019-04-06T03:02:34.357Z,34.65
2019-04-06T03:05:01.702Z,34.78
2019-04-06T03:07:29.674Z,34.88
2019-04-06T03:09:57.032Z,34.90
2019-04-06T03:12:24.090Z,34.88
2019-04-06T03:14:52.252Z,35.02
2019-04-06T03:17:19.604Z,35.05
2019-04-06T03:19:47.270Z,35.07
2019-04-06T03:22:14.927Z,35.07
2019-04-06T03:24:42.281Z,35.11
2019-04-06T03:27:10.451Z,35.09
2019-04-06T03:29:37.658Z,34.94
2019-04-06T03:32:04.777Z,34.95
2019-04-06T03:34:32.810Z,34.69
2019-04-06T03:36:59.880Z,34.58
2019-04-06T03:39:27.542Z,34.38
2019-04-06T03:41:55.114Z,34.45
2019-04-06T03:44:22.441Z,34.47
2019-04-06T03:46:49.510Z,34.39
2019-04-06T03:49:16.533Z,34.61
2019-04-06T03:51:43.784Z,34.79
2019-04-06T03:54:11.763Z,34.78
2019-04-06T03:56:39.103Z,34.74
2019-04-06T03:59:06.215Z,34.89
2019-04-06T04:01:33.247Z,35.01
2019-04-06T04:04:00.543Z,35.10
2019-04-06T04:06:27.840Z,35.15
2019-04-06T04:08:55.684Z,35.06
2019-04-06T04:11:22.726Z,35.11
2019-04-06T04:13:50.389Z,35.20
2019-04-06T04:16:18.047Z,35.09
2019-04-06T04:18:45.822Z,34.89
2019-04-06T04:21:12.948Z,34.54
2019-04-06T04:23:41.883Z,34.64
2019-04-06T04:26:09.022Z,34.54
2019-04-06T04:28:36.038Z,34.52
2019-04-06T04:31:03.126Z,34.48
2019-04-06T04:33:31.056Z,34.47
2019-04-06T04:35:58.227Z,34.94
2019-04-06T04:38:25.988Z,34.91
2019-04-06T04:40:53.322Z,34.92
2019-04-06T04:43:20.382Z,35.02
2019-04-06T04:45:47.492Z,34.99
2019-04-06T04:48:14.585Z,34.97
2019-04-06T04:50:41.901Z,34.94
2019-04-06T04:53:09.271Z,34.92
2019-04-06T04:55:36.318Z,34.97
2019-04-06T04:58:06.368Z,35.07
2019-04-06T05:00:33.567Z,35.07
2019-04-06T05:03:00.598Z,34.83
2019-04-06T05:05:27.804Z,34.61
2019-04-06T05:07:55.408Z,34.57
2019-04-06T05:10:22.819Z,34.60
2019-04-06T05:12:50.284Z,34.42
2019-04-06T05:15:36.503Z,34.26
2019-04-06T05:18:04.049Z,34.21
2019-04-06T05:20:31.973Z,34.73
2019-04-06T05:22:59.840Z,34.82
2019-04-06T05:25:27.211Z,34.83
2019-04-06T05:27:54.533Z,34.73
2019-04-06T05:30:21.553Z,34.67
2019-04-06T05:32:48.554Z,34.71
2019-04-06T05:35:15.577Z,35.03
2019-04-06T05:37:42.593Z,34.78
2019-04-06T05:40:09.782Z,34.81
2019-04-06T05:42:37.774Z,34.65
2019-04-06T05:45:06.081Z,34.59
2019-04-06T05:47:33.688Z,34.41
2019-04-06T05:50:00.754Z,34.22
2019-04-06T05:52:27.761Z,34.34
2019-04-06T05:54:55.040Z,34.45
2019-04-06T05:57:22.697Z,34.19
2019-04-06T05:59:50.255Z,34.10
2019-04-06T06:02:17.653Z,34.15
2019-04-06T06:04:45.477Z,34.49
2019-04-06T06:07:12.637Z,34.46
2019-04-06T06:09:39.957Z,35.63
2019-04-06T06:12:09.336Z,35.01
2019-04-06T06:14:37.338Z,35.95
2019-04-06T06:17:04.597Z,36.49
2019-04-06T06:19:31.750Z,36.32
2019-04-06T06:21:59.521Z,35.50
2019-04-06T06:24:26.940Z,35.23
2019-04-06T06:26:53.995Z,35.04
2019-04-06T06:29:21.266Z,35.06
2019-04-06T06:31:48.302Z,34.80
2019-04-06T06:34:15.327Z,34.55
2019-04-06T06:36:42.532Z,34.46
2019-04-06T06:39:09.543Z,34.36
2019-04-06T06:41:36.574Z,34.16
2019-04-06T06:44:04.050Z,34.27
2019-04-06T06:46:31.137Z,34.30
2019-04-06T06:48:59.061Z,34.47
2019-04-06T06:51:26.293Z,34.50
2019-04-06T06:53:53.345Z,34.75
2019-04-06T06:56:20.714Z,34.86
2019-04-06T06:58:47.753Z,34.75
2019-04-06T07:01:14.985Z,34.92
2019-04-06T07:03:42.541Z,34.84
2019-04-06T07:06:09.590Z,34.69
2019-04-06T07:08:36.988Z,34.64
2019-04-06T07:11:05.566Z,34.48
2019-04-06T07:13:32.602Z,34.38
2019-04-06T07:15:59.611Z,34.27
2019-04-06T07:18:26.620Z,34.15
2019-04-06T07:20:53.766Z,34.03
2019-04-06T07:23:21.504Z,34.06
2019-04-06T07:25:57.334Z,33.89
2019-04-06T07:28:18.053Z,33.76
2019-04-06T07:30:46.288Z,33.80
2019-04-06T07:33:13.305Z,33.71
2019-04-06T07:35:40.331Z,33.86
2019-04-06T07:38:07.414Z,33.81
2019-04-06T07:40:34.598Z,33.83
2019-04-06T07:43:02.175Z,33.79
2019-04-06T07:45:29.182Z,33.70
2019-04-06T07:47:56.185Z,33.65
2019-04-06T07:50:23.179Z,33.71
2019-04-06T07:52:50.202Z,33.63
2019-04-06T07:55:17.335Z,33.62
2019-04-06T07:57:44.835Z,33.60
2019-04-06T08:00:12.061Z,33.51
2019-04-06T08:02:39.630Z,33.51
2019-04-06T08:05:08.364Z,33.35
2019-04-06T08:07:35.590Z,33.15
2019-04-06T08:10:02.958Z,33.20
2019-04-06T08:12:29.976Z,33.04
2019-04-06T08:14:57.533Z,33.00
2019-04-06T08:17:24.669Z,32.96
2019-04-06T08:19:51.925Z,32.84
2019-04-06T08:22:19.835Z,32.91
2019-04-06T08:24:47.101Z,33.01
2019-04-06T08:27:14.753Z,32.94
2019-04-06T08:29:42.006Z,32.87
2019-04-06T08:32:09.356Z,32.86
2019-04-06T08:34:37.024Z,32.85
2019-04-06T08:37:04.497Z,32.85
2019-04-06T08:39:31.827Z,32.81
2019-04-06T08:41:59.844Z,32.76
2019-04-06T08:44:26.929Z,32.80
2019-04-06T08:46:53.932Z,32.81
2019-04-06T08:49:20.945Z,32.77
2019-04-06T08:51:48.321Z,32.49
2019-04-06T08:54:15.598Z,32.49
2019-04-06T08:56:42.906Z,32.47
2019-04-06T08:59:12.170Z,32.50
2019-04-06T09:01:39.416Z,32.29
2019-04-06T09:04:06.514Z,32.23
2019-04-06T09:06:33.585Z,32.12
2019-04-06T09:09:00.980Z,32.28
2019-04-06T09:11:28.718Z,32.28
2019-04-06T09:13:56.029Z,32.26
2019-04-06T09:16:23.676Z,32.27
2019-04-06T09:18:51.124Z,32.24
2019-04-06T09:21:18.640Z,32.33
2019-04-06T09:23:46.261Z,32.20
2019-04-06T09:26:13.402Z,32.29
2019-04-06T09:28:40.575Z,32.28
2019-04-06T09:31:07.720Z,32.23
2019-04-06T09:33:35.479Z,32.15
2019-04-06T09:36:02.692Z,32.22
2019-04-06T09:38:29.835Z,32.21
2019-04-06T09:40:57.385Z,32.02
2019-04-06T09:43:24.849Z,32.14
2019-04-06T09:46:20.739Z,32.27
2019-04-06T09:49:00.296Z,32.30
2019-04-06T09:51:44.865Z,32.31
2019-04-06T09:54:23.933Z,32.25
2019-04-06T09:57:18.199Z,32.02
2019-04-06T09:59:53.857Z,31.81
2019-04-06T10:02:39.516Z,31.61
2019-04-06T10:05:35.682Z,31.28
2019-04-06T10:08:21.425Z,30.72
2019-04-06T10:11:11.524Z,30.58
2019-04-06T10:14:10.517Z,30.41
2019-04-06T10:16:58.460Z,30.73
2019-04-06T10:19:33.404Z,30.70
2019-04-06T10:22:17.747Z,30.78
2019-04-06T10:25:07.728Z,30.77
2019-04-06T10:27:55.256Z,30.80
2019-04-06T10:30:45.170Z,30.80
2019-04-06T10:33:31.850Z,31.09
2019-04-06T10:36:14.264Z,31.45
2019-04-06T10:39:01.168Z,31.68
2019-04-06T10:41:47.992Z,31.64
2019-04-06T10:44:22.207Z,31.62
2019-04-06T10:46:54.678Z,31.56
2019-04-06T10:49:40.248Z,31.60
2019-04-06T10:52:26.997Z,31.63
2019-04-06T10:55:06.628Z,31.67
2019-04-06T10:57:44.108Z,31.70
2019-04-06T11:00:29.438Z,31.42
2019-04-06T11:03:14.904Z,31.13
2019-04-06T11:05:51.712Z,31.02
2019-04-06T11:08:32.295Z,31.05
2019-04-06T11:11:17.929Z,31.14
2019-04-06T11:14:09.102Z,31.16
2019-04-06T11:16:48.309Z,31.14
2019-04-06T11:19:33.679Z,30.92
2019-04-06T11:22:26.459Z,30.91
2019-04-06T11:25:09.240Z,30.80
2019-04-06T11:27:48.388Z,30.50
2019-04-06T11:30:24.665Z,30.41
2019-04-06T11:33:13.967Z,30.35
2019-04-06T11:36:00.699Z,30.20
2019-04-06T11:38:39.141Z,30.21
2019-04-06T11:41:21.389Z,30.08
2019-04-06T11:44:07.324Z,30.22
2019-04-06T11:47:00.278Z,30.37
2019-04-06T11:49:36.209Z,30.56
2019-04-06T11:52:11.926Z,31.10
2019-04-06T11:54:59.370Z,30.75
2019-04-06T11:57:38.481Z,30.96
2019-04-06T12:00:27.546Z,30.98
2019-04-06T12:03:17.287Z,30.82
2019-04-06T12:06:07.580Z,30.46
2019-04-06T12:08:53.080Z,30.20
2019-04-06T12:11:44.072Z,30.04
2019-04-06T12:14:39.815Z,30.00
2019-04-06T12:17:25.261Z,30.45
2019-04-06T12:20:12.782Z,30.24
2019-04-06T12:22:54.802Z,30.15
2019-04-06T12:25:50.513Z,30.22
2019-04-06T12:28:28.901Z,30.32
2019-04-06T12:31:18.969Z,30.49
2019-04-06T12:34:12.677Z,30.52
2019-04-06T12:36:49.139Z,30.46
2019-04-06T12:39:36.547Z,30.63
2019-04-06T12:42:23.282Z,30.69
2019-04-06T12:45:09.248Z,30.71
2019-04-06T12:47:56.289Z,30.59
2019-04-06T12:50:49.581Z,30.51
2019-04-06T12:53:30.426Z,30.57
2019-04-06T12:56:13.760Z,30.72
2019-04-06T12:59:04.114Z,30.83
2019-04-06T13:01:51.331Z,30.86
2019-04-06T13:04:47.467Z,30.71
2019-04-06T13:07:31.403Z,30.56
2019-04-06T13:10:11.993Z,30.73
2019-04-06T13:12:56.206Z,30.62
2019-04-06T13:15:38.142Z,30.52
2019-04-06T13:18:33.738Z,30.25
2019-04-06T13:21:31.123Z,30.12
2019-04-06T13:24:06.050Z,29.97
2019-04-06T13:26:45.406Z,29.98
2019-04-06T13:29:21.311Z,29.85
2019-04-06T13:32:15.081Z,29.79
2019-04-06T13:34:55.059Z,29.78
2019-04-06T13:37:51.432Z,29.65
2019-04-06T13:40:31.056Z,29.89
2019-04-06T13:43:12.937Z,29.90
2019-04-06T13:46:06.042Z,29.93
2019-04-06T13:48:54.363Z,29.87
2019-04-06T13:51:42.752Z,30.00
2019-04-06T13:54:27.909Z,30.10
2019-04-06T13:57:21.404Z,30.15
2019-04-06T14:00:08.761Z,30.36
2019-04-06T14:02:55.238Z,30.43
2019-04-06T14:05:28.466Z,30.67
2019-04-06T14:08:15.323Z,30.79
2019-04-06T14:11:02.286Z,31.18
2019-04-06T14:13:35.663Z,31.17
2019-04-06T14:16:11.451Z,31.14
2019-04-06T14:19:00.952Z,31.16
2019-04-06T14:21:53.443Z,31.28
2019-04-06T14:24:46.450Z,31.28
2019-04-06T14:27:19.647Z,31.39
2019-04-06T14:30:10.218Z,31.50
2019-04-06T14:32:53.004Z,31.58
2019-04-06T14:35:40.584Z,31.51
2019-04-06T14:38:39.871Z,31.68
2019-04-06T14:41:25.338Z,31.74
2019-04-06T14:44:18.066Z,31.74
2019-04-06T14:46:59.553Z,31.63
2019-04-06T14:49:55.430Z,31.38
2019-04-06T14:52:31.387Z,31.58
2019-04-06T14:55:27.760Z,31.52
2019-04-06T14:58:03.939Z,31.38
2019-04-06T15:00:43.042Z,31.33
2019-04-06T15:03:26.228Z,31.24
2019-04-06T15:06:16.291Z,31.21
2019-04-06T15:09:02.289Z,31.16
2019-04-06T15:11:47.830Z,31.17
2019-04-06T15:14:26.640Z,31.03
2019-04-06T15:16:59.209Z,31.13
2019-04-06T15:19:36.706Z,30.93
2019-04-06T15:22:22.409Z,30.73
2019-04-06T15:25:07.122Z,30.80
2019-04-06T15:28:06.419Z,31.07
2019-04-06T15:31:08.496Z,31.14
2019-04-06T15:33:45.002Z,31.09
2019-04-06T15:36:38.519Z,31.41
2019-04-06T15:39:25.017Z,31.38
2019-04-06T15:42:11.137Z,31.62
2019-04-06T15:44:54.137Z,31.84
2019-04-06T15:47:34.809Z,31.92
2019-04-06T15:50:17.651Z,31.96
2019-04-06T15:53:13.874Z,31.49
2019-04-06T15:56:01.460Z,32.12
2019-04-06T15:58:51.565Z,32.28
2019-04-06T16:02:00.176Z,32.41
2019-04-06T16:04:41.361Z,32.31
2019-04-06T16:07:33.546Z,32.62
2019-04-06T16:10:21.456Z,32.90
2019-04-06T16:13:10.524Z,32.91
2019-04-06T16:15:45.302Z,32.79
2019-04-06T16:18:50.809Z,32.84
2019-04-06T16:21:29.411Z,32.73
2019-04-06T16:24:13.224Z,33.10
2019-04-06T16:26:59.009Z,33.07
2019-04-06T16:29:35.500Z,32.87
2019-04-06T16:32:33.259Z,32.64
2019-04-06T16:35:30.951Z,32.78
2019-04-06T16:38:10.163Z,32.99
2019-04-06T16:40:49.682Z,32.99
2019-04-06T16:43:32.376Z,32.84
2019-04-06T16:46:25.347Z,32.83
2019-04-06T16:49:11.044Z,32.55
2019-04-06T16:51:48.247Z,32.95
2019-04-06T16:54:27.237Z,32.98
2019-04-06T16:57:00.953Z,33.02
2019-04-06T16:59:45.198Z,32.84
2019-04-06T17:02:26.005Z,32.74
2019-04-06T17:05:14.745Z,32.67
2019-04-06T17:07:48.836Z,32.79
2019-04-06T17:10:26.882Z,33.06
2019-04-06T17:13:02.823Z,33.08
2019-04-06T17:15:37.625Z,33.13
2019-04-06T17:18:12.270Z,33.14
2019-04-06T17:21:00.036Z,33.03
2019-04-06T17:23:59.625Z,33.04
2019-04-06T17:26:38.872Z,33.15
2019-04-06T17:29:29.079Z,33.38
2019-04-06T17:32:15.408Z,33.45
2019-04-06T17:35:01.381Z,33.53
2019-04-06T17:37:34.605Z,33.43
2019-04-06T17:40:14.130Z,33.47
2019-04-06T17:42:47.675Z,33.65
2019-04-06T17:45:36.088Z,33.75
2019-04-06T17:48:26.164Z,33.82
2019-04-06T17:51:33.030Z,33.87
2019-04-06T17:54:12.288Z,33.82
2019-04-06T17:57:14.648Z,33.96
2019-04-06T18:00:01.904Z,34.05
2019-04-06T18:02:48.766Z,34.16
2019-04-06T18:05:28.266Z,34.13
2019-04-06T18:08:06.941Z,34.15
2019-04-06T18:10:53.482Z,34.26
2019-04-06T18:13:41.215Z,34.39
2019-04-06T18:16:09.001Z,34.44
2019-04-06T18:18:36.415Z,34.58
2019-04-06T18:21:03.867Z,34.55
2019-04-06T18:23:31.265Z,34.54
2019-04-06T18:25:58.335Z,34.57
2019-04-06T18:28:25.384Z,34.58
2019-04-06T18:31:02.694Z,34.62
2019-04-06T18:33:29.977Z,34.66
2019-04-06T18:35:57.358Z,34.69
2019-04-06T18:38:36.544Z,34.77
2019-04-06T18:41:04.122Z,34.84
2019-04-06T18:43:31.906Z,34.89
2019-04-06T18:45:59.398Z,34.93
2019-04-06T18:48:26.427Z,34.99
2019-04-06T18:50:53.443Z,35.01
2019-04-06T18:53:20.813Z,35.08
2019-04-06T18:55:48.203Z,35.14
2019-04-06T18:58:15.562Z,35.16
2019-04-06T19:00:43.558Z,35.16
2019-04-06T19:03:17.407Z,35.20
2019-04-06T19:05:40.559Z,35.25
2019-04-06T19:08:08.421Z,35.25
2019-04-06T19:10:36.447Z,35.27
2019-04-06T19:13:04.412Z,35.23
2019-04-06T19:15:32.561Z,35.31
2019-04-06T19:17:59.924Z,35.30
2019-04-06T19:20:26.950Z,35.41
2019-04-06T19:22:54.591Z,35.44
2019-04-06T19:25:21.877Z,35.44
2019-04-06T19:27:49.702Z,35.48
2019-04-06T19:30:16.842Z,35.56
2019-04-06T19:32:43.955Z,35.56
2019-04-06T19:35:11.047Z,35.60
2019-04-06T19:37:38.538Z,35.61
2019-04-06T19:40:06.023Z,35.64
2019-04-06T19:42:33.553Z,35.62
2019-04-06T19:45:00.562Z,35.63
2019-04-06T19:47:27.940Z,35.53
2019-04-06T19:49:55.209Z,35.52
2019-04-06T19:52:22.224Z,35.61
2019-04-06T19:54:50.126Z,35.56
2019-04-06T19:57:18.359Z,35.63
2019-04-06T19:59:45.770Z,35.52
2019-04-06T20:02:13.100Z,35.57
2019-04-06T20:04:40.994Z,35.69
2019-04-06T20:07:10.732Z,35.73
2019-04-06T20:09:37.292Z,35.83
2019-04-06T20:12:07.479Z,35.88
2019-04-06T20:14:33.287Z,35.89
2019-04-06T20:17:00.371Z,35.89
2019-04-06T20:19:27.338Z,35.86
2019-04-06T20:21:54.339Z,35.97
2019-04-06T20:24:21.775Z,36.00
2019-04-06T20:26:49.396Z,36.03
2019-04-06T20:29:17.394Z,36.00
2019-04-06T20:31:44.704Z,35.90
2019-04-06T20:34:12.086Z,35.93
2019-04-06T20:36:39.622Z,35.89
2019-04-06T20:39:07.848Z,35.88
2019-04-06T20:41:34.856Z,35.86
2019-04-06T20:44:01.868Z,35.94
2019-04-06T20:46:29.762Z,35.82
2019-04-06T20:48:56.960Z,35.94
2019-04-06T20:51:23.969Z,36.01
2019-04-06T20:53:51.347Z,36.03
2019-04-06T20:56:18.362Z,36.04
2019-04-06T20:58:45.953Z,36.17
2019-04-06T21:01:13.076Z,36.14
2019-04-06T21:03:40.462Z,36.10
2019-04-06T21:06:07.885Z,36.17
2019-04-06T21:08:35.399Z,36.19
2019-04-06T21:11:03.575Z,36.19
2019-04-06T21:13:30.670Z,36.20
2019-04-06T21:15:57.796Z,36.20
2019-04-06T21:18:25.304Z,36.16
2019-04-06T21:20:53.328Z,36.08
2019-04-06T21:23:20.718Z,36.06
2019-04-06T21:25:48.154Z,36.00
2019-04-06T21:28:15.523Z,36.08
2019-04-06T21:30:43.217Z,36.02
2019-04-06T21:33:10.699Z,35.83
2019-04-06T21:35:38.101Z,36.06
2019-04-06T21:38:05.745Z,36.10
2019-04-06T21:40:33.067Z,36.15
2019-04-06T21:43:01.008Z,36.28
2019-04-06T21:45:29.143Z,36.23
2019-04-06T21:47:56.192Z,36.21
2019-04-06T21:50:23.225Z,36.25
2019-04-06T21:52:50.838Z,36.30
2019-04-06T21:55:17.988Z,36.34
2019-04-06T21:57:45.781Z,36.39
2019-04-06T22:00:18.384Z,36.46
2019-04-06T22:02:45.937Z,36.37
2019-04-06T22:05:13.740Z,36.27
2019-04-06T22:07:48.633Z,36.26
2019-04-06T22:10:10.656Z,36.19
2019-04-06T22:12:37.841Z,36.17
2019-04-06T22:15:05.910Z,36.07
2019-04-06T22:17:34.839Z,36.05
2019-04-06T22:20:02.145Z,36.14
2019-04-06T22:22:29.587Z,36.34
2019-04-06T22:24:57.612Z,36.33
2019-04-06T22:27:25.076Z,36.34
2019-04-06T22:29:52.263Z,36.39
2019-04-06T22:32:20.838Z,36.36
2019-04-06T22:34:48.698Z,36.36
2019-04-06T22:37:16.273Z,36.41
2019-04-06T22:39:43.680Z,36.52
2019-04-06T22:42:11.476Z,36.49
2019-04-06T22:44:38.687Z,36.51
2019-04-06T22:47:05.943Z,36.37
2019-04-06T22:49:32.987Z,36.26
2019-04-06T22:52:00.018Z,36.11
2019-04-06T22:54:27.744Z,36.11
2019-04-06T22:56:55.812Z,36.24
2019-04-06T22:59:24.339Z,36.03
2019-04-06T23:01:51.775Z,36.13
2019-04-06T23:04:32.494Z,36.24
2019-04-06T23:07:02.951Z,36.31
2019-04-06T23:09:30.877Z,36.39
2019-04-06T23:11:58.765Z,36.36
2019-04-06T23:14:27.294Z,36.48
2019-04-06T23:16:54.480Z,36.52
2019-04-06T23:19:21.528Z,36.54
2019-04-06T23:21:48.862Z,36.85
2019-04-06T23:24:16.065Z,36.79
2019-04-06T23:26:43.409Z,36.51
2019-04-06T23:29:11.190Z,36.47
2019-04-06T23:31:38.383Z,36.27
2019-04-06T23:34:05.446Z,36.21
2019-04-06T23:36:33.034Z,36.17
2019-04-06T23:39:00.185Z,36.16
2019-04-06T23:41:27.684Z,36.21
2019-04-06T23:43:55.003Z,36.09
2019-04-06T23:46:22.364Z,36.38
2019-04-06T23:48:49.901Z,36.50
2019-04-06T23:51:17.436Z,36.53
2019-04-06T23:53:44.881Z,36.59
2019-04-06T23:56:12.776Z,36.64
2019-04-06T23:58:40.134Z,36.57
